sensor_id;sensor_type;location;lat;lon;timestamp;P1;durP1;ratioP1;P2;durP2;ratioP2
51616;SDS011;37697;52.588;13.394;2023-08-31T00:01:15;3.70;;;2.70;;
51616;SDS011;37697;52.588;13.394;2023-08-31T00:06:41;4.30;;;2.50;;
51616;SDS011;37697;52.588;13.394;2023-08-31T00:12:07;4.70;;;2.80;;
51616;SDS011;37697;52.588;13.394;2023-08-31T00:17:33;4.00;;;2.80;;
51616;SDS011;37697;52.588;13.394;2023-08-31T00:22:58;3.20;;;2.50;;
51616;SDS011;37697;52.588;13.394;2023-08-31T00:28:24;2.90;;;2.20;;
51616;SDS011;37697;52.588;13.394;2023-08-31T00:33:50;3.20;;;2.30;;
51616;SDS011;37697;52.588;13.394;2023-08-31T00:39:16;3.40;;;2.40;;
51616;SDS011;37697;52.588;13.394;2023-08-31T00:44:42;3.30;;;2.60;;
51616;SDS011;37697;52.588;13.394;2023-08-31T00:50:08;4.70;;;2.60;;
51616;SDS011;37697;52.588;13.394;2023-08-31T00:55:34;4.60;;;2.60;;
51616;SDS011;37697;52.588;13.394;2023-08-31T01:01:02;3.80;;;2.80;;
51616;SDS011;37697;52.588;13.394;2023-08-31T01:06:40;3.60;;;2.90;;
51616;SDS011;37697;52.588;13.394;2023-08-31T01:12:16;3.80;;;2.90;;
51616;SDS011;37697;52.588;13.394;2023-08-31T01:17:47;3.70;;;3.00;;
51616;SDS011;37697;52.588;13.394;2023-08-31T01:23:16;3.80;;;3.20;;
51616;SDS011;37697;52.588;13.394;2023-08-31T01:28:49;4.60;;;4.00;;
51616;SDS011;37697;52.588;13.394;2023-08-31T01:34:16;5.00;;;4.00;;
51616;SDS011;37697;52.588;13.394;2023-08-31T01:39:44;4.00;;;3.10;;
51616;SDS011;37697;52.588;13.394;2023-08-31T01:45:16;4.50;;;3.10;;
51616;SDS011;37697;52.588;13.394;2023-08-31T01:50:45;4.90;;;3.60;;
51616;SDS011;37697;52.588;13.394;2023-08-31T01:56:11;4.00;;;2.50;;
51616;SDS011;37697;52.588;13.394;2023-08-31T02:01:37;3.20;;;2.40;;
51616;SDS011;37697;52.588;13.394;2023-08-31T02:07:02;3.10;;;2.20;;
51616;SDS011;37697;52.588;13.394;2023-08-31T02:12:28;4.20;;;2.60;;
51616;SDS011;37697;52.588;13.394;2023-08-31T02:17:54;3.30;;;2.40;;
51616;SDS011;37697;52.588;13.394;2023-08-31T02:23:20;3.10;;;1.80;;
51616;SDS011;37697;52.588;13.394;2023-08-31T02:28:45;3.20;;;1.70;;
51616;SDS011;37697;52.588;13.394;2023-08-31T02:34:11;2.70;;;1.90;;
51616;SDS011;37697;52.588;13.394;2023-08-31T02:39:37;1.90;;;1.40;;
51616;SDS011;37697;52.588;13.394;2023-08-31T02:45:03;3.00;;;1.60;;
51616;SDS011;37697;52.588;13.394;2023-08-31T02:50:30;2.20;;;1.60;;
51616;SDS011;37697;52.588;13.394;2023-08-31T02:55:56;2.60;;;1.80;;
51616;SDS011;37697;52.588;13.394;2023-08-31T03:01:22;2.60;;;1.80;;
51616;SDS011;37697;52.588;13.394;2023-08-31T03:06:48;2.50;;;1.60;;
51616;SDS011;37697;52.588;13.394;2023-08-31T03:12:13;3.60;;;2.40;;
51616;SDS011;37697;52.588;13.394;2023-08-31T03:17:39;3.10;;;2.10;;
51616;SDS011;37697;52.588;13.394;2023-08-31T03:23:05;4.10;;;2.10;;
51616;SDS011;37697;52.588;13.394;2023-08-31T03:28:31;3.50;;;2.30;;
51616;SDS011;37697;52.588;13.394;2023-08-31T03:33:57;4.40;;;2.50;;
51616;SDS011;37697;52.588;13.394;2023-08-31T03:39:22;3.10;;;2.00;;
51616;SDS011;37697;52.588;13.394;2023-08-31T03:44:48;3.00;;;2.20;;
51616;SDS011;37697;52.588;13.394;2023-08-31T03:50:14;3.60;;;2.10;;
51616;SDS011;37697;52.588;13.394;2023-08-31T03:55:39;3.00;;;2.20;;
51616;SDS011;37697;52.588;13.394;2023-08-31T04:01:05;2.90;;;2.00;;
51616;SDS011;37697;52.588;13.394;2023-08-31T04:06:31;3.60;;;2.60;;
51616;SDS011;37697;52.588;13.394;2023-08-31T04:11:57;3.90;;;2.70;;
51616;SDS011;37697;52.588;13.394;2023-08-31T04:17:22;4.10;;;2.50;;
51616;SDS011;37697;52.588;13.394;2023-08-31T04:22:48;4.60;;;3.40;;
51616;SDS011;37697;52.588;13.394;2023-08-31T04:28:10;6.40;;;3.60;;
51616;SDS011;37697;52.588;13.394;2023-08-31T04:33:37;6.40;;;4.30;;
51616;SDS011;37697;52.588;13.394;2023-08-31T04:39:03;5.30;;;3.90;;
51616;SDS011;37697;52.588;13.394;2023-08-31T04:44:29;4.60;;;3.40;;
51616;SDS011;37697;52.588;13.394;2023-08-31T04:49:55;7.00;;;4.30;;
51616;SDS011;37697;52.588;13.394;2023-08-31T04:55:22;7.20;;;5.40;;
51616;SDS011;37697;52.588;13.394;2023-08-31T05:00:48;6.90;;;4.80;;
51616;SDS011;37697;52.588;13.394;2023-08-31T05:06:13;7.10;;;5.60;;
51616;SDS011;37697;52.588;13.394;2023-08-31T05:11:39;7.20;;;6.00;;
51616;SDS011;37697;52.588;13.394;2023-08-31T05:17:05;6.80;;;5.90;;
51616;SDS011;37697;52.588;13.394;2023-08-31T05:22:31;7.50;;;6.30;;
51616;SDS011;37697;52.588;13.394;2023-08-31T05:27:57;8.30;;;5.80;;
51616;SDS011;37697;52.588;13.394;2023-08-31T05:33:23;7.80;;;5.40;;
51616;SDS011;37697;52.588;13.394;2023-08-31T05:38:49;7.30;;;6.50;;
51616;SDS011;37697;52.588;13.394;2023-08-31T05:44:16;6.20;;;5.40;;
51616;SDS011;37697;52.588;13.394;2023-08-31T05:49:44;8.40;;;6.30;;
51616;SDS011;37697;52.588;13.394;2023-08-31T05:55:09;9.50;;;7.10;;
51616;SDS011;37697;52.588;13.394;2023-08-31T06:00:35;7.90;;;6.20;;
51616;SDS011;37697;52.588;13.394;2023-08-31T06:06:01;7.10;;;6.00;;
51616;SDS011;37697;52.588;13.394;2023-08-31T06:11:35;7.10;;;6.40;;
51616;SDS011;37697;52.588;13.394;2023-08-31T06:17:01;7.10;;;6.10;;
51616;SDS011;37697;52.588;13.394;2023-08-31T06:22:27;7.80;;;6.80;;
51616;SDS011;37697;52.588;13.394;2023-08-31T06:27:52;7.60;;;5.60;;
51616;SDS011;37697;52.588;13.394;2023-08-31T06:33:18;8.50;;;6.10;;
51616;SDS011;37697;52.588;13.394;2023-08-31T06:38:44;10.30;;;5.80;;
51616;SDS011;37697;52.588;13.394;2023-08-31T06:44:10;7.80;;;5.20;;
51616;SDS011;37697;52.588;13.394;2023-08-31T06:49:36;9.10;;;6.10;;
51616;SDS011;37697;52.588;13.394;2023-08-31T06:55:02;7.70;;;5.60;;
51616;SDS011;37697;52.588;13.394;2023-08-31T07:00:28;7.80;;;6.00;;
51616;SDS011;37697;52.588;13.394;2023-08-31T07:05:53;7.70;;;5.80;;
51616;SDS011;37697;52.588;13.394;2023-08-31T07:11:19;7.80;;;5.00;;
51616;SDS011;37697;52.588;13.394;2023-08-31T07:16:45;6.50;;;5.00;;
51616;SDS011;37697;52.588;13.394;2023-08-31T07:22:11;5.60;;;4.60;;
51616;SDS011;37697;52.588;13.394;2023-08-31T07:27:36;5.60;;;3.60;;
51616;SDS011;37697;52.588;13.394;2023-08-31T07:33:03;6.00;;;4.00;;
51616;SDS011;37697;52.588;13.394;2023-08-31T07:38:34;8.60;;;3.80;;
51616;SDS011;37697;52.588;13.394;2023-08-31T07:44:00;5.50;;;3.00;;
51616;SDS011;37697;52.588;13.394;2023-08-31T07:49:25;6.20;;;3.30;;
51616;SDS011;37697;52.588;13.394;2023-08-31T07:54:51;4.50;;;2.80;;
51616;SDS011;37697;52.588;13.394;2023-08-31T08:00:17;7.30;;;3.60;;
51616;SDS011;37697;52.588;13.394;2023-08-31T08:05:44;6.10;;;3.20;;
51616;SDS011;37697;52.588;13.394;2023-08-31T08:11:09;5.90;;;2.30;;
51616;SDS011;37697;52.588;13.394;2023-08-31T08:16:35;5.70;;;2.00;;
51616;SDS011;37697;52.588;13.394;2023-08-31T08:22:01;6.30;;;2.30;;
51616;SDS011;37697;52.588;13.394;2023-08-31T08:27:27;5.20;;;2.00;;
51616;SDS011;37697;52.588;13.394;2023-08-31T08:32:53;6.40;;;2.20;;
51616;SDS011;37697;52.588;13.394;2023-08-31T08:38:20;4.50;;;2.00;;
51616;SDS011;37697;52.588;13.394;2023-08-31T08:43:46;4.10;;;1.70;;
51616;SDS011;37697;52.588;13.394;2023-08-31T08:49:12;5.40;;;1.30;;
51616;SDS011;37697;52.588;13.394;2023-08-31T08:54:39;8.30;;;1.50;;
51616;SDS011;37697;52.588;13.394;2023-08-31T09:00:06;4.10;;;1.20;;
51616;SDS011;37697;52.588;13.394;2023-08-31T09:05:34;2.90;;;1.20;;
51616;SDS011;37697;52.588;13.394;2023-08-31T09:10:59;4.60;;;1.40;;
51616;SDS011;37697;52.588;13.394;2023-08-31T09:16:26;3.50;;;1.10;;
51616;SDS011;37697;52.588;13.394;2023-08-31T09:21:54;2.50;;;0.90;;
51616;SDS011;37697;52.588;13.394;2023-08-31T09:27:21;3.10;;;1.00;;
51616;SDS011;37697;52.588;13.394;2023-08-31T09:32:52;3.80;;;1.30;;
51616;SDS011;37697;52.588;13.394;2023-08-31T09:38:19;3.60;;;0.90;;
51616;SDS011;37697;52.588;13.394;2023-08-31T09:43:45;3.60;;;1.20;;
51616;SDS011;37697;52.588;13.394;2023-08-31T09:49:10;4.80;;;1.10;;
51616;SDS011;37697;52.588;13.394;2023-08-31T09:54:40;3.40;;;1.30;;
51616;SDS011;37697;52.588;13.394;2023-08-31T10:00:09;4.30;;;1.30;;
51616;SDS011;37697;52.588;13.394;2023-08-31T10:10:55;3.40;;;1.20;;
51616;SDS011;37697;52.588;13.394;2023-08-31T10:16:17;3.20;;;1.30;;
51616;SDS011;37697;52.588;13.394;2023-08-31T10:21:45;4.00;;;1.30;;
51616;SDS011;37697;52.588;13.394;2023-08-31T10:27:20;2.20;;;1.00;;
51616;SDS011;37697;52.588;13.394;2023-08-31T10:32:46;3.30;;;1.10;;
51616;SDS011;37697;52.588;13.394;2023-08-31T10:38:28;2.40;;;1.00;;
51616;SDS011;37697;52.588;13.394;2023-08-31T10:43:56;2.90;;;1.00;;
51616;SDS011;37697;52.588;13.394;2023-08-31T10:49:23;3.70;;;1.20;;
51616;SDS011;37697;52.588;13.394;2023-08-31T10:54:49;3.50;;;1.30;;
51616;SDS011;37697;52.588;13.394;2023-08-31T11:06:15;7.30;;;1.80;;
51616;SDS011;37697;52.588;13.394;2023-08-31T11:11:44;3.40;;;1.60;;
51616;SDS011;37697;52.588;13.394;2023-08-31T11:17:10;6.50;;;1.70;;
51616;SDS011;37697;52.588;13.394;2023-08-31T11:22:39;4.40;;;1.60;;
51616;SDS011;37697;52.588;13.394;2023-08-31T11:28:07;1.70;;;0.90;;
51616;SDS011;37697;52.588;13.394;2023-08-31T11:33:33;2.80;;;1.30;;
51616;SDS011;37697;52.588;13.394;2023-08-31T11:38:58;3.70;;;1.70;;
51616;SDS011;37697;52.588;13.394;2023-08-31T11:44:27;2.20;;;1.30;;
51616;SDS011;37697;52.588;13.394;2023-08-31T11:49:54;2.20;;;1.20;;
51616;SDS011;37697;52.588;13.394;2023-08-31T11:55:20;4.80;;;1.50;;
51616;SDS011;37697;52.588;13.394;2023-08-31T12:00:46;4.40;;;1.40;;
51616;SDS011;37697;52.588;13.394;2023-08-31T12:06:20;3.20;;;1.40;;
51616;SDS011;37697;52.588;13.394;2023-08-31T12:11:50;3.20;;;1.30;;
51616;SDS011;37697;52.588;13.394;2023-08-31T12:17:09;4.80;;;1.40;;
51616;SDS011;37697;52.588;13.394;2023-08-31T12:22:35;4.30;;;1.50;;
51616;SDS011;37697;52.588;13.394;2023-08-31T12:28:00;4.60;;;1.60;;
51616;SDS011;37697;52.588;13.394;2023-08-31T12:33:26;2.00;;;1.10;;
51616;SDS011;37697;52.588;13.394;2023-08-31T12:38:52;2.50;;;1.00;;
51616;SDS011;37697;52.588;13.394;2023-08-31T12:44:18;5.40;;;1.20;;
51616;SDS011;37697;52.588;13.394;2023-08-31T12:49:43;2.40;;;1.00;;
51616;SDS011;37697;52.588;13.394;2023-08-31T12:55:10;2.30;;;1.20;;
51616;SDS011;37697;52.588;13.394;2023-08-31T13:00:35;2.70;;;1.20;;
51616;SDS011;37697;52.588;13.394;2023-08-31T13:06:01;1.40;;;1.00;;
51616;SDS011;37697;52.588;13.394;2023-08-31T13:11:27;3.60;;;1.10;;
51616;SDS011;37697;52.588;13.394;2023-08-31T13:16:53;4.00;;;1.30;;
51616;SDS011;37697;52.588;13.394;2023-08-31T13:22:18;3.20;;;1.30;;
51616;SDS011;37697;52.588;13.394;2023-08-31T13:27:45;2.00;;;0.80;;
51616;SDS011;37697;52.588;13.394;2023-08-31T13:33:10;1.20;;;0.80;;
51616;SDS011;37697;52.588;13.394;2023-08-31T13:38:39;2.20;;;0.90;;
51616;SDS011;37697;52.588;13.394;2023-08-31T13:44:04;2.20;;;0.70;;
51616;SDS011;37697;52.588;13.394;2023-08-31T13:49:30;2.40;;;1.00;;
51616;SDS011;37697;52.588;13.394;2023-08-31T13:54:56;5.00;;;1.20;;
51616;SDS011;37697;52.588;13.394;2023-08-31T14:00:22;3.00;;;0.90;;
51616;SDS011;37697;52.588;13.394;2023-08-31T14:05:48;3.30;;;1.00;;
51616;SDS011;37697;52.588;13.394;2023-08-31T14:11:17;2.20;;;1.00;;
51616;SDS011;37697;52.588;13.394;2023-08-31T14:16:43;3.50;;;1.10;;
51616;SDS011;37697;52.588;13.394;2023-08-31T14:22:09;1.60;;;0.90;;
51616;SDS011;37697;52.588;13.394;2023-08-31T14:27:35;2.80;;;1.10;;
51616;SDS011;37697;52.588;13.394;2023-08-31T14:33:01;1.70;;;0.80;;
51616;SDS011;37697;52.588;13.394;2023-08-31T14:38:27;2.60;;;0.70;;
51616;SDS011;37697;52.588;13.394;2023-08-31T14:43:52;3.20;;;0.80;;
51616;SDS011;37697;52.588;13.394;2023-08-31T14:49:18;1.30;;;0.80;;
51616;SDS011;37697;52.588;13.394;2023-08-31T14:54:46;3.10;;;0.80;;
51616;SDS011;37697;52.588;13.394;2023-08-31T14:59:52;1.50;;;0.70;;
51616;SDS011;37697;52.588;13.394;2023-08-31T15:05:18;2.80;;;0.80;;
51616;SDS011;37697;52.588;13.394;2023-08-31T15:10:44;1.30;;;0.90;;
51616;SDS011;37697;52.588;13.394;2023-08-31T15:16:09;1.00;;;0.70;;
51616;SDS011;37697;52.588;13.394;2023-08-31T15:21:35;1.40;;;0.70;;
51616;SDS011;37697;52.588;13.394;2023-08-31T15:27:01;1.70;;;0.80;;
51616;SDS011;37697;52.588;13.394;2023-08-31T15:32:27;2.40;;;0.90;;
51616;SDS011;37697;52.588;13.394;2023-08-31T15:37:53;3.70;;;1.50;;
51616;SDS011;37697;52.588;13.394;2023-08-31T15:43:19;2.60;;;1.50;;
51616;SDS011;37697;52.588;13.394;2023-08-31T15:48:45;2.10;;;0.90;;
51616;SDS011;37697;52.588;13.394;2023-08-31T15:54:12;1.20;;;0.70;;
51616;SDS011;37697;52.588;13.394;2023-08-31T15:59:39;1.90;;;0.80;;
51616;SDS011;37697;52.588;13.394;2023-08-31T16:05:05;1.70;;;0.70;;
51616;SDS011;37697;52.588;13.394;2023-08-31T16:10:32;2.20;;;1.20;;
51616;SDS011;37697;52.588;13.394;2023-08-31T16:15:58;2.10;;;1.00;;
51616;SDS011;37697;52.588;13.394;2023-08-31T16:21:24;1.50;;;0.70;;
51616;SDS011;37697;52.588;13.394;2023-08-31T16:26:50;1.60;;;0.90;;
51616;SDS011;37697;52.588;13.394;2023-08-31T16:32:16;2.80;;;0.90;;
51616;SDS011;37697;52.588;13.394;2023-08-31T16:37:42;1.70;;;0.70;;
51616;SDS011;37697;52.588;13.394;2023-08-31T16:43:08;2.20;;;0.90;;
51616;SDS011;37697;52.588;13.394;2023-08-31T16:48:34;1.90;;;0.90;;
51616;SDS011;37697;52.588;13.394;2023-08-31T16:53:59;1.30;;;0.80;;
51616;SDS011;37697;52.588;13.394;2023-08-31T16:59:25;1.70;;;0.70;;
51616;SDS011;37697;52.588;13.394;2023-08-31T17:04:51;1.30;;;0.80;;
51616;SDS011;37697;52.588;13.394;2023-08-31T17:10:19;1.70;;;1.00;;
51616;SDS011;37697;52.588;13.394;2023-08-31T17:15:45;1.20;;;0.90;;
51616;SDS011;37697;52.588;13.394;2023-08-31T17:21:13;1.20;;;0.70;;
51616;SDS011;37697;52.588;13.394;2023-08-31T17:26:39;1.20;;;0.60;;
51616;SDS011;37697;52.588;13.394;2023-08-31T17:32:05;2.70;;;0.80;;
51616;SDS011;37697;52.588;13.394;2023-08-31T17:37:31;2.30;;;0.60;;
51616;SDS011;37697;52.588;13.394;2023-08-31T17:42:57;1.50;;;0.80;;
51616;SDS011;37697;52.588;13.394;2023-08-31T17:48:23;1.80;;;0.60;;
51616;SDS011;37697;52.588;13.394;2023-08-31T17:53:50;1.50;;;0.80;;
51616;SDS011;37697;52.588;13.394;2023-08-31T17:59:16;2.00;;;1.20;;
51616;SDS011;37697;52.588;13.394;2023-08-31T18:04:42;2.00;;;1.10;;
51616;SDS011;37697;52.588;13.394;2023-08-31T18:10:08;4.40;;;1.20;;
51616;SDS011;37697;52.588;13.394;2023-08-31T18:15:24;1.40;;;0.90;;
51616;SDS011;37697;52.588;13.394;2023-08-31T18:20:50;1.20;;;0.90;;
51616;SDS011;37697;52.588;13.394;2023-08-31T18:26:19;1.70;;;1.00;;
51616;SDS011;37697;52.588;13.394;2023-08-31T18:31:45;1.30;;;1.00;;
51616;SDS011;37697;52.588;13.394;2023-08-31T18:37:11;1.70;;;1.00;;
51616;SDS011;37697;52.588;13.394;2023-08-31T18:42:37;2.40;;;1.20;;
51616;SDS011;37697;52.588;13.394;2023-08-31T18:48:03;1.90;;;1.10;;
51616;SDS011;37697;52.588;13.394;2023-08-31T18:53:29;2.10;;;1.10;;
51616;SDS011;37697;52.588;13.394;2023-08-31T18:58:55;2.10;;;1.00;;
51616;SDS011;37697;52.588;13.394;2023-08-31T19:04:21;3.50;;;1.30;;
51616;SDS011;37697;52.588;13.394;2023-08-31T19:09:48;2.00;;;1.10;;
51616;SDS011;37697;52.588;13.394;2023-08-31T19:15:15;2.60;;;1.30;;
51616;SDS011;37697;52.588;13.394;2023-08-31T19:20:42;2.10;;;1.10;;
51616;SDS011;37697;52.588;13.394;2023-08-31T19:31:46;2.20;;;1.10;;
51616;SDS011;37697;52.588;13.394;2023-08-31T19:37:12;3.50;;;1.20;;
51616;SDS011;37697;52.588;13.394;2023-08-31T19:42:37;1.90;;;1.10;;
51616;SDS011;37697;52.588;13.394;2023-08-31T19:48:04;2.50;;;1.00;;
51616;SDS011;37697;52.588;13.394;2023-08-31T19:53:31;3.30;;;1.60;;
51616;SDS011;37697;52.588;13.394;2023-08-31T19:58:57;1.70;;;0.90;;
51616;SDS011;37697;52.588;13.394;2023-08-31T20:04:22;4.00;;;1.20;;
51616;SDS011;37697;52.588;13.394;2023-08-31T20:09:38;1.80;;;1.20;;
51616;SDS011;37697;52.588;13.394;2023-08-31T20:15:05;2.20;;;1.10;;
51616;SDS011;37697;52.588;13.394;2023-08-31T20:20:32;2.50;;;1.30;;
51616;SDS011;37697;52.588;13.394;2023-08-31T20:25:58;2.10;;;1.20;;
51616;SDS011;37697;52.588;13.394;2023-08-31T20:31:24;2.70;;;1.20;;
51616;SDS011;37697;52.588;13.394;2023-08-31T20:36:49;1.90;;;1.10;;
51616;SDS011;37697;52.588;13.394;2023-08-31T20:42:06;2.60;;;1.20;;
51616;SDS011;37697;52.588;13.394;2023-08-31T20:47:22;1.90;;;1.10;;
51616;SDS011;37697;52.588;13.394;2023-08-31T20:52:37;2.60;;;1.40;;
51616;SDS011;37697;52.588;13.394;2023-08-31T20:58:03;2.00;;;1.10;;
51616;SDS011;37697;52.588;13.394;2023-08-31T21:03:21;3.00;;;1.40;;
51616;SDS011;37697;52.588;13.394;2023-08-31T21:08:47;2.60;;;1.10;;
51616;SDS011;37697;52.588;13.394;2023-08-31T21:14:03;2.30;;;1.30;;
51616;SDS011;37697;52.588;13.394;2023-08-31T21:19:29;2.00;;;1.10;;
51616;SDS011;37697;52.588;13.394;2023-08-31T21:24:54;4.30;;;1.30;;
51616;SDS011;37697;52.588;13.394;2023-08-31T21:30:20;3.10;;;1.60;;
51616;SDS011;37697;52.588;13.394;2023-08-31T21:35:41;3.40;;;1.30;;
51616;SDS011;37697;52.588;13.394;2023-08-31T21:41:03;1.80;;;1.30;;
51616;SDS011;37697;52.588;13.394;2023-08-31T21:46:28;2.00;;;1.00;;
51616;SDS011;37697;52.588;13.394;2023-08-31T21:51:54;2.80;;;1.20;;
51616;SDS011;37697;52.588;13.394;2023-08-31T21:57:03;1.80;;;1.40;;
51616;SDS011;37697;52.588;13.394;2023-08-31T22:02:22;2.70;;;1.30;;
51616;SDS011;37697;52.588;13.394;2023-08-31T22:07:49;3.10;;;1.40;;
51616;SDS011;37697;52.588;13.394;2023-08-31T22:13:16;2.40;;;1.30;;
51616;SDS011;37697;52.588;13.394;2023-08-31T22:18:42;2.40;;;1.40;;
51616;SDS011;37697;52.588;13.394;2023-08-31T22:24:08;2.30;;;1.30;;
51616;SDS011;37697;52.588;13.394;2023-08-31T22:29:26;2.30;;;1.30;;
51616;SDS011;37697;52.588;13.394;2023-08-31T22:34:52;3.00;;;1.20;;
51616;SDS011;37697;52.588;13.394;2023-08-31T22:40:20;2.30;;;1.40;;
51616;SDS011;37697;52.588;13.394;2023-08-31T22:45:48;3.70;;;1.40;;
51616;SDS011;37697;52.588;13.394;2023-08-31T22:51:19;3.40;;;1.80;;
51616;SDS011;37697;52.588;13.394;2023-08-31T22:56:45;2.90;;;1.60;;
51616;SDS011;37697;52.588;13.394;2023-08-31T23:08:52;2.80;;;1.40;;
51616;SDS011;37697;52.588;13.394;2023-08-31T23:14:11;1.60;;;1.20;;
51616;SDS011;37697;52.588;13.394;2023-08-31T23:19:37;3.30;;;1.50;;
51616;SDS011;37697;52.588;13.394;2023-08-31T23:24:56;1.50;;;1.00;;
51616;SDS011;37697;52.588;13.394;2023-08-31T23:30:22;2.40;;;1.40;;
51616;SDS011;37697;52.588;13.394;2023-08-31T23:35:48;3.40;;;1.40;;
51616;SDS011;37697;52.588;13.394;2023-08-31T23:41:16;3.10;;;1.40;;
51616;SDS011;37697;52.588;13.394;2023-08-31T23:46:42;2.30;;;1.40;;
51616;SDS011;37697;52.588;13.394;2023-08-31T23:52:07;2.20;;;1.30;;
51616;SDS011;37697;52.588;13.394;2023-08-31T23:57:33;2.30;;;1.30;;
